Terminal Aerodrome Forecast
Issued by NWS

Home | Current Version | Previous Version | Text Only | Print | Product List | Glossary On
Versions: 1 2 3 4 5 6 7 8 9 10 11 12 13 14 15 16 17
000
FTPA31 PHFO 080527
TAFHKO
TAF
PHKO 080527Z 0806/0906 17008KT P6SM VCSH SCT030 BKN060
     FM081000 VRB05KT P6SM SCT060 BKN150
     FM082100 24009KT P6SM VCSH SCT025 BKN050 OVC150
     FM090000 32010KT P6SM VCSH SCT025 BKN050 OVC150
     FM090500 36010KT P6SM VCSH SCT025 BKN050 OVC150=

USA.gov is the U.S. government's official web portal to all federal, state and local government web resources and services.